Kenton, OH

7:38 PM EDT on August 28, 2014 (GMT -0400)
Lima Allen County | Change Station
CLOSE
Current Station
Airport
Location: Lima,
Elevation: 974 ft
Nearby Weather Stations

Elev 974 ft 40.71 °N, 84.03 °W | Updated 45 minutes ago

Clear
Clear
76 °F
Feels Like 76 °F
N
6
Wind Variable Wind from ENE

Today
High -- | Low -- °F
--% Chance of Precip.
Yesterday
High -- | Low -- °F
Precip. -- in
6:57 AM 8:12 PM
Waxing Crescent, 10% visible
Pressure 30.08 in
Visibility 10.0 miles
Clouds Clear
Dew Point 62 °F
Humidity 62%
Rainfall 0.00 in
Snow Depth Not available.
UV 1 out of 12
Pollen 10.30 out of 12
Air Quality Not available.
Flu Activity Not available.
METAR KAOH 282253Z AUTO 07005KT 10SM CLR 24/17 A3009 RMK AO2 SLP184 T02440167

More Conditions Fewer Conditions

Pressure 30.08 in
Visibility 10.0 miles
Clouds Clear
Dew Point 62 °F
Humidity 62%
Rainfall 0.00 in
Snow Depth Not available.
UV 1 out of 12
Pollen 10.30 out of 12
Air Quality Not available.
Flu Activity Not available.
METAR KAOH 282253Z AUTO 07005KT 10SM CLR 24/17 A3009 RMK AO2 SLP184 T02440167

More Conditions Fewer Conditions

10-Day Weather Forecast

Almanac

Astronomy

Aug. 28, 2014 Rise Set
Actual Time 6:57 AM EDT 8:12 PM EDT
Civil Twilight 6:29 AM EDT 8:41 PM EDT
Nautical Twilight 5:55 AM EDT 9:14 PM EDT
Astronomical Twilight 5:19 AM EDT 9:50 PM EDT
Moon 9:50 AM EDT 9:35 PM EDT
Length of Visible Light 14h 11m
Length of Day
13h 15m
Tomorrow will be 2m 33s shorter.
Waxing Crescent, 10% of the Moon is Illuminated
Today
Waxing Crescent
Sep 2
First Quarter
Sep 8
Full
Sep 15
Last Quarter
Sep 24
New

Today's Extremes

State Highs State Lows

Community

WunderPhotos

Upload Photos

1,748,104 photos uploaded!

Nearby

Snow Depth

Station Depth Elevation
No new snow has been reported.

Earthquake Activity

City Distance Mag. Time & Date
No recent earthquake activity has been reported nearby.
Minimum magnitude displayed is 2.5.

Coastal Water Temperatures

Place Temperature
No Stations Reporting

Nearby Weather Stations